WIHH

Jakarta/Halim Perdanakusuma International Airport

Airport
ICAO code
WIHH
IATA Code
HLP
Summary
ICAO Region
APAC
ICAO Territory
Location

East Jakarta, Jakarta

Serving
Jakarta
Elevation
82 ft
Coordinates
6° 16' 3" S , 106° 53' 24" E
KCC
Aw
Metar
Observation
WIHH 160930Z 32008KT 5000 HZ FEW019CB SCT020 31/25 Q1007 CB AND RA TO SW
Station
HALIM PERDANAKUS
Date/Time
2022-08-16 09:30:00
Wind direction
320°
Wind speed
08 kts
Lowest cloud amount
few clouds
Temperature
31°C
Dew point
25°C
Humidity
70%
QNH
1007 hPa
Weather condition
n/a

Airport serving Jakarta.

Climatology

Tropical Savanna climate (Köppen climate classification Aw) - monthly mean temperature above 18°C in every month of the year and a pronounced dry season.

SKYbrary Partners:

Safety knowledge contributed by: